createdAt,value
2023-02-24T00:01:52.296Z,8.92
2023-02-24T00:04:21.061Z,9.00
2023-02-24T00:06:48.408Z,8.95
2023-02-24T00:09:18.192Z,8.78
2023-02-24T00:11:48.037Z,8.73
2023-02-24T00:14:16.877Z,8.67
2023-02-24T00:16:45.085Z,8.56
2023-02-24T00:19:16.192Z,8.26
2023-02-24T00:21:43.268Z,7.90
2023-02-24T00:24:10.535Z,8.22
2023-02-24T00:26:37.509Z,8.04
2023-02-24T00:29:06.574Z,8.06
2023-02-24T00:31:33.419Z,8.09
2023-02-24T00:34:01.911Z,8.37
2023-02-24T00:36:30.559Z,8.51
2023-02-24T00:38:59.517Z,8.44
2023-02-24T00:41:31.866Z,8.48
2023-02-24T00:44:06.365Z,8.18
2023-02-24T00:46:37.244Z,8.21
2023-02-24T00:49:10.479Z,8.45
2023-02-24T00:51:39.717Z,8.34
2023-02-24T00:54:06.620Z,8.55
2023-02-24T00:56:33.264Z,8.50
2023-02-24T00:59:00.106Z,8.36
2023-02-24T01:01:31.342Z,8.40
2023-02-24T01:04:05.852Z,8.42
2023-02-24T01:06:34.405Z,8.53
2023-02-24T01:09:01.159Z,8.55
2023-02-24T01:11:51.202Z,7.97
2023-02-24T01:14:21.114Z,7.88
2023-02-24T01:16:50.331Z,8.19
2023-02-24T01:19:18.090Z,7.85
2023-02-24T01:21:46.130Z,8.48
2023-02-24T01:24:15.640Z,8.54
2023-02-24T01:26:42.882Z,8.75
2023-02-24T01:29:09.769Z,8.48
2023-02-24T01:31:43.182Z,8.76
2023-02-24T01:34:12.974Z,8.84
2023-02-24T01:36:43.309Z,8.86
2023-02-24T01:39:13.615Z,8.81
2023-02-24T01:41:41.956Z,8.71
2023-02-24T01:44:32.663Z,8.82
2023-02-24T01:47:03.703Z,8.56
2023-02-24T01:49:35.465Z,8.86
2023-02-24T01:52:19.052Z,8.79
2023-02-24T01:54:49.681Z,8.79
2023-02-24T01:57:20.974Z,8.79
2023-02-24T01:59:50.957Z,8.54
2023-02-24T02:02:19.412Z,8.55
2023-02-24T02:05:03.598Z,8.74
2023-02-24T02:07:30.497Z,8.89
2023-02-24T02:10:06.598Z,8.55
2023-02-24T02:12:38.465Z,8.61
2023-02-24T02:15:06.633Z,8.37
2023-02-24T02:17:40.857Z,8.15
2023-02-24T02:20:53.715Z,7.61
2023-02-24T02:23:42.750Z,7.93
2023-02-24T02:26:53.964Z,7.69
2023-02-24T02:29:35.664Z,7.88
2023-02-24T02:32:31.462Z,8.40
2023-02-24T02:35:14.036Z,8.74
2023-02-24T02:37:50.907Z,8.81
2023-02-24T02:40:29.426Z,8.84
2023-02-24T02:43:14.139Z,8.75
2023-02-24T02:46:04.246Z,8.50
2023-02-24T02:48:41.163Z,8.51
2023-02-24T02:51:11.815Z,8.46
2023-02-24T02:53:46.436Z,8.65
2023-02-24T02:56:17.841Z,8.68
2023-02-24T02:58:48.567Z,8.73
2023-02-24T03:01:48.411Z,8.80
2023-02-24T03:04:22.753Z,8.79
2023-02-24T03:06:56.013Z,8.71
2023-02-24T03:09:29.401Z,8.79
2023-02-24T03:12:03.314Z,8.76
2023-02-24T03:14:39.117Z,8.78
2023-02-24T03:17:16.217Z,8.83
2023-02-24T03:19:46.906Z,8.85
2023-02-24T03:22:35.899Z,8.79
2023-02-24T03:25:05.125Z,8.53
2023-02-24T03:27:49.638Z,8.25
2023-02-24T03:30:30.026Z,8.50
2023-02-24T03:33:05.307Z,8.66
2023-02-24T03:35:44.310Z,8.60
2023-02-24T03:38:14.120Z,8.24
2023-02-24T03:40:43.349Z,7.74
2023-02-24T03:43:19.848Z,8.07
2023-02-24T03:45:46.787Z,8.30
2023-02-24T03:48:13.645Z,8.32
2023-02-24T03:50:42.466Z,8.32
2023-02-24T03:53:39.329Z,8.48
2023-02-24T03:56:19.681Z,8.75
2023-02-24T03:59:13.668Z,8.68
2023-02-24T04:01:58.294Z,8.62
2023-02-24T04:04:52.841Z,8.68
2023-02-24T04:07:45.651Z,8.66
2023-02-24T04:10:58.446Z,8.78
2023-02-24T04:13:39.484Z,8.73
2023-02-24T04:16:36.404Z,8.81
2023-02-24T04:19:09.645Z,8.77
2023-02-24T04:21:39.139Z,8.46
2023-02-24T04:24:11.848Z,8.71
2023-02-24T04:26:42.846Z,8.86
2023-02-24T04:29:17.417Z,8.93
2023-02-24T04:31:50.193Z,8.90
2023-02-24T04:34:20.040Z,8.84
2023-02-24T04:36:49.745Z,8.68
2023-02-24T04:39:19.141Z,8.21
2023-02-24T04:41:50.314Z,7.87
2023-02-24T04:44:23.522Z,7.84
2023-02-24T04:46:50.832Z,7.82
2023-02-24T04:49:18.801Z,7.59
2023-02-24T04:51:46.420Z,7.74
2023-02-24T04:54:17.319Z,7.74
2023-02-24T04:56:45.365Z,7.58
2023-02-24T04:59:12.084Z,7.59
2023-02-24T05:01:39.846Z,7.53
2023-02-24T05:04:10.449Z,7.49
2023-02-24T05:06:46.159Z,7.43
2023-02-24T05:09:14.978Z,7.54
2023-02-24T05:11:43.544Z,7.72
2023-02-24T05:14:14.651Z,7.42
2023-02-24T05:16:43.649Z,7.59
2023-02-24T05:19:33.969Z,7.61
2023-02-24T05:22:02.952Z,7.07
2023-02-24T05:24:31.365Z,7.42
2023-02-24T05:26:59.176Z,7.53
2023-02-24T05:29:34.170Z,7.30
2023-02-24T05:32:01.323Z,7.23
2023-02-24T05:34:32.546Z,7.13
2023-02-24T05:37:01.922Z,7.36
2023-02-24T05:39:28.541Z,7.72
2023-02-24T05:41:57.182Z,7.47
2023-02-24T05:44:26.674Z,7.33
2023-02-24T05:47:00.189Z,7.58
2023-02-24T05:49:32.903Z,7.60
2023-02-24T05:52:05.519Z,7.79
2023-02-24T05:54:35.710Z,7.59
2023-02-24T05:57:07.384Z,7.64
2023-02-24T05:59:34.595Z,8.15
2023-02-24T06:02:09.808Z,8.03
2023-02-24T06:04:45.587Z,7.39
2023-02-24T06:07:22.803Z,7.39
2023-02-24T06:09:53.630Z,7.33
2023-02-24T06:12:22.545Z,7.35
2023-02-24T06:14:49.170Z,7.22
2023-02-24T06:17:17.108Z,7.13
2023-02-24T06:19:44.817Z,7.78
2023-02-24T06:22:16.094Z,7.20
2023-02-24T06:24:45.264Z,7.54
2023-02-24T06:27:17.665Z,7.69
2023-02-24T06:29:46.390Z,7.70
2023-02-24T06:32:13.081Z,7.33
2023-02-24T06:34:40.773Z,7.06
2023-02-24T06:37:10.869Z,7.41
2023-02-24T06:39:37.511Z,7.39
2023-02-24T06:42:05.721Z,7.57
2023-02-24T06:44:34.058Z,7.83
2023-02-24T06:47:01.018Z,7.56
2023-02-24T06:49:28.193Z,7.82
2023-02-24T06:51:55.739Z,7.91
2023-02-24T06:54:23.492Z,7.73
2023-02-24T06:56:50.182Z,7.41
2023-02-24T06:59:21.617Z,7.39
2023-02-24T07:01:48.800Z,7.32
2023-02-24T07:04:16.935Z,6.98
2023-02-24T07:06:46.164Z,7.08
2023-02-24T07:09:17.406Z,7.44
2023-02-24T07:11:51.948Z,7.81
2023-02-24T07:14:31.844Z,7.38
2023-02-24T07:16:59.450Z,7.63
2023-02-24T07:19:29.673Z,7.63
2023-02-24T07:22:00.330Z,7.82
2023-02-24T07:24:33.323Z,7.94
2023-02-24T07:27:05.898Z,8.09
2023-02-24T07:29:34.188Z,7.96
2023-02-24T07:32:03.718Z,7.84
2023-02-24T07:34:30.629Z,7.23
2023-02-24T07:36:57.758Z,7.43
2023-02-24T07:39:24.806Z,7.32
2023-02-24T07:41:53.052Z,7.26
2023-02-24T07:44:21.679Z,7.05
2023-02-24T07:46:49.168Z,6.91
2023-02-24T07:49:19.857Z,6.99
2023-02-24T07:51:52.497Z,6.95
2023-02-24T07:54:21.423Z,6.99
2023-02-24T07:56:56.344Z,6.78
2023-02-24T07:59:25.511Z,6.58
2023-02-24T08:01:55.552Z,6.67
2023-02-24T08:04:26.702Z,6.82
2023-02-24T08:06:57.508Z,6.81
2023-02-24T08:09:44.422Z,6.93
2023-02-24T08:12:15.430Z,6.94
2023-02-24T08:14:44.470Z,7.47
2023-02-24T08:17:12.037Z,7.70
2023-02-24T08:19:41.577Z,7.74
2023-02-24T08:22:19.402Z,7.50
2023-02-24T08:25:00.644Z,7.54
2023-02-24T08:27:32.294Z,7.75
2023-02-24T08:30:00.939Z,7.99
2023-02-24T08:32:43.419Z,8.09
2023-02-24T08:35:19.262Z,8.27
2023-02-24T08:37:48.547Z,8.45
2023-02-24T08:40:34.065Z,8.28
2023-02-24T08:43:22.461Z,8.22
2023-02-24T08:46:05.423Z,8.08
2023-02-24T08:48:55.357Z,8.08
2023-02-24T08:51:34.962Z,8.21
2023-02-24T08:54:15.437Z,7.98
2023-02-24T08:56:48.965Z,8.06
2023-02-24T08:59:36.979Z,8.37
2023-02-24T09:02:23.814Z,8.53
2023-02-24T09:04:55.289Z,8.52
2023-02-24T09:07:21.765Z,8.70
2023-02-24T09:09:48.995Z,8.51
2023-02-24T09:12:24.345Z,8.61
2023-02-24T09:14:55.655Z,8.40
2023-02-24T09:17:40.217Z,8.77
2023-02-24T09:20:30.347Z,8.63
2023-02-24T09:23:03.676Z,8.83
2023-02-24T09:25:41.440Z,8.76
2023-02-24T09:28:16.970Z,8.63
2023-02-24T09:30:53.512Z,8.67
2023-02-24T09:33:29.220Z,8.66
2023-02-24T09:36:12.818Z,8.63
2023-02-24T09:38:59.637Z,8.72
2023-02-24T09:42:17.932Z,8.84
2023-02-24T09:44:49.081Z,8.91
2023-02-24T09:47:30.964Z,8.75
2023-02-24T09:50:04.341Z,8.88
2023-02-24T09:52:41.019Z,9.13
2023-02-24T09:56:00.184Z,8.77
2023-02-24T09:58:47.739Z,8.47
2023-02-24T10:01:42.755Z,8.47
2023-02-24T10:04:20.724Z,8.45
2023-02-24T10:06:51.852Z,8.50
2023-02-24T10:09:34.620Z,8.55
2023-02-24T10:12:24.030Z,8.59
2023-02-24T10:15:21.072Z,8.52
2023-02-24T10:17:55.329Z,8.52
2023-02-24T10:20:39.359Z,8.35
2023-02-24T10:23:32.818Z,8.48
2023-02-24T10:26:21.897Z,8.58
2023-02-24T10:28:57.315Z,8.52
2023-02-24T10:31:27.315Z,8.77
2023-02-24T10:34:06.062Z,8.64
2023-02-24T10:36:36.161Z,8.42
2023-02-24T10:39:20.706Z,8.35
2023-02-24T10:42:15.415Z,8.37
2023-02-24T10:45:02.539Z,8.65
2023-02-24T10:47:31.162Z,8.77
2023-02-24T10:50:05.259Z,8.89
2023-02-24T10:52:37.032Z,8.95
2023-02-24T10:55:09.116Z,8.98
2023-02-24T10:57:58.571Z,9.44
2023-02-24T11:00:51.001Z,9.51
2023-02-24T11:03:35.777Z,9.64
2023-02-24T11:06:03.450Z,9.73
2023-02-24T11:08:54.431Z,9.83
2023-02-24T11:11:29.927Z,9.58
2023-02-24T11:14:20.220Z,9.82
2023-02-24T11:17:08.714Z,9.68
2023-02-24T11:19:47.518Z,9.84
2023-02-24T11:22:17.601Z,9.84
2023-02-24T11:24:46.146Z,10.13
2023-02-24T11:27:14.919Z,10.27
2023-02-24T11:30:06.220Z,10.43
2023-02-24T11:32:59.103Z,10.12
2023-02-24T11:35:42.034Z,10.37
2023-02-24T11:38:27.792Z,10.05
2023-02-24T11:41:07.868Z,10.06
2023-02-24T11:43:40.197Z,10.25
2023-02-24T11:46:14.678Z,9.96
2023-02-24T11:48:47.153Z,10.08
2023-02-24T11:51:18.796Z,10.15
2023-02-24T11:53:56.680Z,10.14
2023-02-24T11:56:28.173Z,10.14
2023-02-24T11:59:00.098Z,10.06
2023-02-24T12:01:32.156Z,10.03
2023-02-24T12:04:26.664Z,10.20
2023-02-24T12:07:15.035Z,10.13
2023-02-24T12:09:47.940Z,10.09
2023-02-24T12:12:24.431Z,10.30
2023-02-24T12:14:56.946Z,10.28
2023-02-24T12:17:31.298Z,10.42
2023-02-24T12:20:06.092Z,10.38
2023-02-24T12:22:49.000Z,10.38
2023-02-24T12:25:16.712Z,10.40
2023-02-24T12:28:04.719Z,10.37
2023-02-24T12:30:57.453Z,10.47
2023-02-24T12:33:36.067Z,10.46
2023-02-24T12:36:25.255Z,10.55
2023-02-24T12:39:11.511Z,10.79
2023-02-24T12:42:24.745Z,10.48
2023-02-24T12:45:11.418Z,10.74
2023-02-24T12:48:03.127Z,10.69
2023-02-24T12:51:07.471Z,10.73
2023-02-24T12:53:50.337Z,10.95
2023-02-24T12:56:41.729Z,11.11
2023-02-24T12:59:12.433Z,11.13
2023-02-24T13:01:48.566Z,11.14
2023-02-24T13:04:29.453Z,11.24
2023-02-24T13:07:01.650Z,11.06
2023-02-24T13:09:36.010Z,10.58
2023-02-24T13:12:24.094Z,10.39
2023-02-24T13:14:51.335Z,10.69
2023-02-24T13:17:24.332Z,10.76
2023-02-24T13:19:53.826Z,10.74
2023-02-24T13:22:29.567Z,10.62
2023-02-24T13:25:10.161Z,10.69
2023-02-24T13:27:40.740Z,10.59
2023-02-24T13:30:18.247Z,10.57
2023-02-24T13:33:00.354Z,10.23
2023-02-24T13:35:26.959Z,10.30
2023-02-24T13:37:54.441Z,10.14
2023-02-24T13:40:26.357Z,10.23
2023-02-24T13:43:01.558Z,10.03
2023-02-24T13:45:33.697Z,10.21
2023-02-24T13:48:09.357Z,10.05
2023-02-24T13:50:58.574Z,10.22
2023-02-24T13:53:40.656Z,10.00
2023-02-24T13:56:29.002Z,10.09
2023-02-24T13:59:18.404Z,10.30
2023-02-24T14:02:07.894Z,10.19
2023-02-24T14:04:39.343Z,10.02
2023-02-24T14:07:11.482Z,10.22
2023-02-24T14:09:43.020Z,10.12
2023-02-24T14:12:14.360Z,10.15
2023-02-24T14:14:44.286Z,10.04
2023-02-24T14:17:31.011Z,10.18
2023-02-24T14:20:09.662Z,10.35
2023-02-24T14:22:48.568Z,10.16
2023-02-24T14:25:16.472Z,10.22
2023-02-24T14:27:45.789Z,10.24
2023-02-24T14:30:26.191Z,10.15
2023-02-24T14:32:53.365Z,10.10
2023-02-24T14:35:32.045Z,9.98
2023-02-24T14:38:00.283Z,9.98
2023-02-24T14:40:28.639Z,9.99
2023-02-24T14:42:57.032Z,9.91
2023-02-24T14:45:27.139Z,10.15
2023-02-24T14:47:56.066Z,10.17
2023-02-24T14:50:34.038Z,10.23
2023-02-24T14:53:12.965Z,10.23
2023-02-24T14:55:42.838Z,10.47
2023-02-24T14:58:44.679Z,10.31
2023-02-24T15:01:30.450Z,10.67
2023-02-24T15:04:00.951Z,10.76
2023-02-24T15:06:31.092Z,10.60
2023-02-24T15:09:01.365Z,10.39
2023-02-24T15:11:31.443Z,10.69
2023-02-24T15:14:01.673Z,10.46
2023-02-24T15:16:41.863Z,10.42
2023-02-24T15:19:27.322Z,10.33
2023-02-24T15:21:54.191Z,10.39
2023-02-24T15:24:35.006Z,10.25
2023-02-24T15:27:20.129Z,10.35
2023-02-24T15:30:09.997Z,10.62
2023-02-24T15:32:38.280Z,10.35
2023-02-24T15:35:05.805Z,10.27
2023-02-24T15:37:42.239Z,10.22
2023-02-24T15:40:28.545Z,10.14
2023-02-24T15:43:09.793Z,10.26
2023-02-24T15:45:38.856Z,10.31
2023-02-24T15:48:23.161Z,10.11
2023-02-24T15:50:52.856Z,10.12
2023-02-24T15:53:19.476Z,9.98
2023-02-24T15:55:46.060Z,10.03
2023-02-24T15:58:17.735Z,10.02
2023-02-24T16:00:45.474Z,10.02
2023-02-24T16:03:12.478Z,10.02
2023-02-24T16:05:39.389Z,10.13
2023-02-24T16:08:12.954Z,10.07
2023-02-24T16:10:40.588Z,9.99
2023-02-24T16:13:14.900Z,9.90
2023-02-24T16:15:44.219Z,9.98
2023-02-24T16:18:20.955Z,10.20
2023-02-24T16:20:56.628Z,10.07
2023-02-24T16:23:26.007Z,10.11
2023-02-24T16:25:57.718Z,10.09
2023-02-24T16:28:25.402Z,9.99
2023-02-24T16:30:52.642Z,9.81
2023-02-24T16:33:22.474Z,9.88
2023-02-24T16:35:53.159Z,9.90
2023-02-24T16:38:21.412Z,9.94
2023-02-24T16:40:49.741Z,9.89
2023-02-24T16:43:16.800Z,10.12
2023-02-24T16:45:45.107Z,10.06
2023-02-24T16:48:20.991Z,9.94
2023-02-24T16:50:48.461Z,9.77
2023-02-24T16:53:22.538Z,9.48
2023-02-24T16:55:49.701Z,9.43
2023-02-24T16:58:16.516Z,9.57
2023-02-24T17:00:45.732Z,9.47
2023-02-24T17:03:23.990Z,9.40
2023-02-24T17:05:51.112Z,9.75
2023-02-24T17:08:18.503Z,9.70
2023-02-24T17:10:46.028Z,9.58
2023-02-24T17:13:14.640Z,9.78
2023-02-24T17:15:41.322Z,9.69
2023-02-24T17:18:08.394Z,9.83
2023-02-24T17:20:36.009Z,9.79
2023-02-24T17:23:02.692Z,9.88
2023-02-24T17:25:31.348Z,9.82
2023-02-24T17:27:58.926Z,9.60
2023-02-24T17:30:31.570Z,9.85
2023-02-24T17:32:58.225Z,9.69
2023-02-24T17:35:25.724Z,9.62
2023-02-24T17:37:52.757Z,9.84
2023-02-24T17:40:20.136Z,9.91
2023-02-24T17:42:46.975Z,9.82
2023-02-24T17:45:14.932Z,9.84
2023-02-24T17:47:42.223Z,9.86
2023-02-24T17:50:10.818Z,9.99
2023-02-24T17:52:37.655Z,10.00
2023-02-24T17:55:05.079Z,9.71
2023-02-24T17:57:34.731Z,9.90
2023-02-24T18:00:01.419Z,9.65
2023-02-24T18:02:28.131Z,9.60
2023-02-24T18:04:55.304Z,9.68
2023-02-24T18:07:21.990Z,9.81
2023-02-24T18:09:48.572Z,9.85
2023-02-24T18:12:17.174Z,9.71
2023-02-24T18:14:43.923Z,9.55
2023-02-24T18:17:10.944Z,9.43
2023-02-24T18:19:37.617Z,9.61
2023-02-24T18:22:04.151Z,9.63
2023-02-24T18:24:30.708Z,9.82
2023-02-24T18:26:57.283Z,9.73
2023-02-24T18:29:23.907Z,9.98
2023-02-24T18:31:50.818Z,9.87
2023-02-24T18:34:17.557Z,9.82
2023-02-24T18:36:44.203Z,9.92
2023-02-24T18:39:14.600Z,9.88
2023-02-24T18:41:41.672Z,9.83
2023-02-24T18:44:09.062Z,9.91
2023-02-24T18:46:36.194Z,9.79
2023-02-24T18:49:03.722Z,9.89
2023-02-24T18:51:30.421Z,9.85
2023-02-24T18:53:58.361Z,9.93
2023-02-24T18:56:26.916Z,10.02
2023-02-24T18:58:58.903Z,9.89
2023-02-24T19:01:28.696Z,9.98
2023-02-24T19:03:55.654Z,9.93
2023-02-24T19:06:24.593Z,9.95
2023-02-24T19:09:05.827Z,9.88
2023-02-24T19:11:32.871Z,9.87
2023-02-24T19:14:00.688Z,9.85
2023-02-24T19:16:27.931Z,9.77
2023-02-24T19:18:56.698Z,9.64
2023-02-24T19:21:24.455Z,9.87
2023-02-24T19:23:51.217Z,9.79
2023-02-24T19:26:21.352Z,9.62
2023-02-24T19:28:48.686Z,9.58
2023-02-24T19:31:18.528Z,9.59
2023-02-24T19:33:45.348Z,9.58
2023-02-24T19:36:12.049Z,9.62
2023-02-24T19:38:41.940Z,9.43
2023-02-24T19:41:08.598Z,9.69
2023-02-24T19:43:35.340Z,9.22
2023-02-24T19:46:06.765Z,8.94
2023-02-24T19:48:34.290Z,9.01
2023-02-24T19:51:11.515Z,9.21
2023-02-24T19:53:38.150Z,9.23
2023-02-24T19:56:05.385Z,8.75
2023-02-24T19:58:32.231Z,8.80
2023-02-24T20:01:10.980Z,8.50
2023-02-24T20:03:39.114Z,8.55
2023-02-24T20:06:06.382Z,8.14
2023-02-24T20:08:35.066Z,8.47
2023-02-24T20:11:03.415Z,8.08
2023-02-24T20:13:30.395Z,8.02
2023-02-24T20:16:07.355Z,7.78
2023-02-24T20:18:33.984Z,7.73
2023-02-24T20:21:00.944Z,7.82
2023-02-24T20:23:27.891Z,8.38
2023-02-24T20:25:56.457Z,8.49
2023-02-24T20:28:23.977Z,8.04
2023-02-24T20:30:51.247Z,8.28
2023-02-24T20:33:18.681Z,8.44
2023-02-24T20:35:45.360Z,8.01
2023-02-24T20:38:12.050Z,8.11
2023-02-24T20:40:39.192Z,7.84
2023-02-24T20:43:07.632Z,8.38
2023-02-24T20:45:36.526Z,8.08
2023-02-24T20:48:04.069Z,8.33
2023-02-24T20:50:31.185Z,8.52
2023-02-24T20:52:57.817Z,8.69
2023-02-24T20:55:24.352Z,8.92
2023-02-24T20:57:50.942Z,9.03
2023-02-24T21:00:17.919Z,8.97
2023-02-24T21:02:44.754Z,9.12
2023-02-24T21:05:20.329Z,9.18
2023-02-24T21:07:50.041Z,9.01
2023-02-24T21:10:17.658Z,8.99
2023-02-24T21:12:45.001Z,9.02
2023-02-24T21:15:12.259Z,8.58
2023-02-24T21:17:39.423Z,8.02
2023-02-24T21:20:10.680Z,8.16
2023-02-24T21:22:39.101Z,7.83
2023-02-24T21:25:07.270Z,8.17
2023-02-24T21:27:34.138Z,8.34
2023-02-24T21:30:00.834Z,8.49
2023-02-24T21:32:27.636Z,8.27
2023-02-24T21:34:54.675Z,8.41
2023-02-24T21:37:21.268Z,8.21
2023-02-24T21:39:47.847Z,8.28
2023-02-24T21:42:14.489Z,8.35
2023-02-24T21:44:43.551Z,7.75
2023-02-24T21:47:11.143Z,7.50
2023-02-24T21:49:37.848Z,7.73
2023-02-24T21:52:09.745Z,7.56
2023-02-24T21:54:36.300Z,7.34
2023-02-24T21:57:04.087Z,7.00
2023-02-24T21:59:30.624Z,7.37
2023-02-24T22:01:57.318Z,7.50
2023-02-24T22:04:23.922Z,7.58
2023-02-24T22:06:50.535Z,7.43
2023-02-24T22:09:20.502Z,7.55
2023-02-24T22:11:49.203Z,7.23
2023-02-24T22:14:15.985Z,7.14
2023-02-24T22:16:42.935Z,7.26
2023-02-24T22:19:10.247Z,7.21
2023-02-24T22:21:39.207Z,7.76
2023-02-24T22:24:06.104Z,7.69
2023-02-24T22:26:32.732Z,7.63
2023-02-24T22:29:00.118Z,7.49
2023-02-24T22:31:29.630Z,7.48
2023-02-24T22:33:56.514Z,7.08
2023-02-24T22:36:25.589Z,7.42
2023-02-24T22:38:53.055Z,7.51
2023-02-24T22:41:25.735Z,7.39
2023-02-24T22:43:53.950Z,7.39
2023-02-24T22:46:27.012Z,7.21
2023-02-24T22:48:55.024Z,6.94
2023-02-24T22:51:22.155Z,7.05
2023-02-24T22:53:49.708Z,6.93
2023-02-24T22:56:24.470Z,6.92
2023-02-24T22:58:51.289Z,7.01
2023-02-24T23:01:29.853Z,7.05
2023-02-24T23:03:59.641Z,7.29
2023-02-24T23:06:26.570Z,7.27
2023-02-24T23:08:54.406Z,7.71
2023-02-24T23:11:24.685Z,7.72
2023-02-24T23:13:51.817Z,7.61
2023-02-24T23:16:22.107Z,7.60
2023-02-24T23:18:50.746Z,7.38
2023-02-24T23:21:22.184Z,7.68
2023-02-24T23:23:49.920Z,7.60
2023-02-24T23:26:17.948Z,7.63
2023-02-24T23:28:44.721Z,7.70
2023-02-24T23:31:17.706Z,7.75
2023-02-24T23:33:44.410Z,7.87
2023-02-24T23:36:11.039Z,7.88
2023-02-24T23:38:37.636Z,7.65
2023-02-24T23:41:08.209Z,7.97
2023-02-24T23:43:35.044Z,7.88
2023-02-24T23:46:13.098Z,7.89
2023-02-24T23:48:40.227Z,7.94
2023-02-24T23:51:12.309Z,8.02
2023-02-24T23:53:44.612Z,7.90
2023-02-24T23:56:23.184Z,8.03
2023-02-24T23:58:59.403Z,8.22
